Time,TemperatureF,DewpointF,PressureIn,WindDirection,WindDirectionDegrees,WindSpeedMPH,WindSpeedGustMPH,Humidity,HourlyPrecipIn,Conditions,Clouds,dailyrainin,SoftwareType,DateUTC
2013-10-21 00:02:00,52.6,42.3,29.83,West,263,0.8,2.3,68,0.00,OVC,FEW,0.00,WeatherDisplay:10.37,2013-10-21 05:02:00,
2013-10-21 00:07:00,52.4,42.1,29.83,ENE,65,0.9,2.0,68,0.00,OVC,FEW,0.00,WeatherDisplay:10.37,2013-10-21 05:07:00,
2013-10-21 00:12:00,52.3,42.0,29.83,NE,48,0.4,1.2,68,0.00,OVC,FEW,0.00,WeatherDisplay:10.37,2013-10-21 05:12:00,
2013-10-21 00:17:00,52.1,42.2,29.84,NW,319,0.1,1.2,69,0.00,OVC,FEW,0.00,WeatherDisplay:10.37,2013-10-21 05:17:00,
2013-10-21 00:22:00,51.9,42.0,29.84,NW,319,0.0,1.2,69,0.00,OVC,FEW,0.00,WeatherDisplay:10.37,2013-10-21 05:22:00,
2013-10-21 00:27:00,51.6,42.1,29.84,NW,319,0.0,1.2,70,0.00,OVC,FEW,0.00,WeatherDisplay:10.37,2013-10-21 05:27:00,
2013-10-21 00:32:00,51.4,41.9,29.84,NW,319,0.0,0.0,70,0.00,OVC,FEW,0.00,WeatherDisplay:10.37,2013-10-21 05:32:00,
2013-10-21 00:37:00,51.1,42.0,29.84,NW,319,0.1,1.2,71,0.00,OVC,FEW,0.00,WeatherDisplay:10.37,2013-10-21 05:37:00,
2013-10-21 00:42:00,50.8,42.1,29.84,WNW,289,0.9,3.5,72,0.00,OVC,FEW,0.00,WeatherDisplay:10.37,2013-10-21 05:42:00,
2013-10-21 00:47:00,50.5,41.8,29.84,NNW,334,0.8,2.3,72,0.00,OVC,FEW,0.00,WeatherDisplay:10.37,2013-10-21 05:47:00,
2013-10-21 00:52:00,50.3,41.6,29.84,NW,315,0.7,2.3,72,0.00,OVC,FEW,0.00,WeatherDisplay:10.37,2013-10-21 05:52:00,
2013-10-21 00:57:00,50.0,41.7,29.84,NW,321,1.0,3.5,73,0.00,OVC,FEW,0.00,WeatherDisplay:10.37,2013-10-21 05:57:00,
2013-10-21 01:02:00,49.7,41.4,29.84,NW,319,0.3,1.2,73,0.00,OVC,FEW,0.00,WeatherDisplay:10.37,2013-10-21 06:02:00,
2013-10-21 01:07:00,49.5,41.6,29.84,SW,232,1.5,2.3,74,0.00,OVC,FEW,0.00,WeatherDisplay:10.37,2013-10-21 06:07:00,
2013-10-21 01:12:00,49.3,41.4,29.85,NW,325,1.9,3.0,74,0.00,OVC,FEW,0.00,WeatherDisplay:10.37,2013-10-21 06:12:00,
2013-10-21 01:17:00,49.2,41.6,29.85,NW,324,0.6,5.8,75,0.00,OVC,FEW,0.00,WeatherDisplay:10.37,2013-10-21 06:17:00,
2013-10-21 01:22:00,49.3,41.7,29.85,WNW,301,1.5,3.5,75,0.00,OVC,FEW,0.00,WeatherDisplay:10.37,2013-10-21 06:22:00,
2013-10-21 01:27:00,49.2,41.6,29.85,WNW,290,1.6,2.3,75,0.00,OVC,FEW,0.00,WeatherDisplay:10.37,2013-10-21 06:27:00,
2013-10-21 01:32:00,49.1,41.5,29.86,NW,306,2.3,9.2,75,0.00,OVC,FEW,0.00,WeatherDisplay:10.37,2013-10-21 06:32:00,
2013-10-21 01:37:00,49.0,41.4,29.86,NNW,337,2.0,4.0,75,0.00,OVC,FEW,0.00,WeatherDisplay:10.37,2013-10-21 06:37:00,
2013-10-21 01:42:00,48.8,41.2,29.87,WNW,300,3.1,7.0,75,0.00,OVC,FEW,0.00,WeatherDisplay:10.37,2013-10-21 06:42:00,
2013-10-21 01:47:00,48.6,41.4,29.88,NW,326,3.3,9.2,76,0.00,OVC,FEW,0.00,WeatherDisplay:10.37,2013-10-21 06:47:00,
2013-10-21 01:52:00,48.4,40.8,29.88,NW,308,2.2,7.0,75,0.00,OVC,FEW,0.00,WeatherDisplay:10.37,2013-10-21 06:52:00,
2013-10-21 01:57:00,48.1,40.5,29.88,WNW,295,3.2,4.6,75,0.00,OVC,FEW,0.00,WeatherDisplay:10.37,2013-10-21 06:57:00,
2013-10-21 02:03:00,47.9,40.4,29.88,NNE,13,5.0,9.0,75,0.00,OVC,FEW,0.00,WeatherDisplay:10.37,2013-10-21 07:03:00,
2013-10-21 02:08:00,47.7,40.2,29.88,NW,321,2.1,3.5,75,0.00,OVC,FEW,0.00,WeatherDisplay:10.37,2013-10-21 07:08:00,
2013-10-21 02:13:00,47.4,40.2,29.89,NNW,331,0.9,3.5,76,0.00,OVC,FEW,0.00,WeatherDisplay:10.37,2013-10-21 07:13:00,
2013-10-21 02:18:00,47.2,40.4,29.89,West,275,2.4,4.6,77,0.00,OVC,FEW,0.00,WeatherDisplay:10.37,2013-10-21 07:18:00,
2013-10-21 02:23:00,47.0,40.2,29.89,WNW,297,0.8,3.5,77,0.00,OVC,FEW,0.00,WeatherDisplay:10.37,2013-10-21 07:23:00,
2013-10-21 02:28:00,46.7,39.9,29.89,WNW,297,0.6,2.3,77,0.00,OVC,FEW,0.00,WeatherDisplay:10.37,2013-10-21 07:28:00,
2013-10-21 02:33:00,46.4,39.6,29.89,NNW,343,1.0,3.5,77,0.00,OVC,FEW,0.00,WeatherDisplay:10.37,2013-10-21 07:33:00,
2013-10-21 02:38:00,46.2,39.4,29.89,WNW,298,0.9,2.3,77,0.00,OVC,FEW,0.00,WeatherDisplay:10.37,2013-10-21 07:38:00,
2013-10-21 02:43:00,46.0,39.2,29.89,NW,323,1.2,2.3,77,0.00,OVC,FEW,0.00,WeatherDisplay:10.37,2013-10-21 07:43:00,
2013-10-21 02:48:00,45.9,39.1,29.90,NW,316,2.0,3.5,77,0.00,OVC,FEW,0.00,WeatherDisplay:10.37,2013-10-21 07:48:00,
2013-10-21 02:53:00,45.8,39.0,29.90,NW,310,0.7,3.5,77,0.00,OVC,FEW,0.00,WeatherDisplay:10.37,2013-10-21 07:53:00,
2013-10-21 02:58:00,45.7,38.9,29.90,NW,320,2.4,4.6,77,0.00,OVC,FEW,0.00,WeatherDisplay:10.37,2013-10-21 07:58:00,
2013-10-21 03:03:00,45.5,38.7,29.90,WNW,289,1.5,10.4,77,0.00,OVC,FEW,0.00,WeatherDisplay:10.37,2013-10-21 08:03:00,
2013-10-21 03:08:00,45.3,38.5,29.90,NNW,342,2.3,10.4,77,0.00,OVC,FEW,0.00,WeatherDisplay:10.37,2013-10-21 08:08:00,
2013-10-21 03:13:00,45.1,38.3,29.90,NW,311,1.1,2.3,77,0.00,OVC,FEW,0.00,WeatherDisplay:10.37,2013-10-21 08:13:00,
2013-10-21 03:18:00,44.9,38.1,29.90,NNW,336,3.1,5.8,77,0.00,OVC,FEW,0.00,WeatherDisplay:10.37,2013-10-21 08:18:00,
2013-10-21 03:23:00,44.5,37.1,29.90,West,267,4.8,8.1,75,0.00,OVC,FEW,0.00,WeatherDisplay:10.37,2013-10-21 08:23:00,
2013-10-21 03:28:00,44.0,36.2,29.90,NNW,344,4.7,10.4,74,0.00,OVC,FEW,0.00,WeatherDisplay:10.37,2013-10-21 08:28:00,
2013-10-21 03:33:00,43.8,36.0,29.91,WNW,284,1.8,4.6,74,0.00,OVC,FEW,0.00,WeatherDisplay:10.37,2013-10-21 08:33:00,
2013-10-21 03:38:00,43.7,36.0,29.91,WNW,295,1.6,4.6,74,0.00,OVC,FEW,0.00,WeatherDisplay:10.37,2013-10-21 08:38:00,
2013-10-21 03:43:00,43.6,35.9,29.91,WNW,290,2.1,8.1,74,0.00,OVC,FEW,0.00,WeatherDisplay:10.37,2013-10-21 08:43:00,
2013-10-21 03:48:00,43.5,35.8,29.92,WNW,298,1.6,3.5,74,0.00,OVC,FEW,0.00,WeatherDisplay:10.37,2013-10-21 08:48:00,
2013-10-21 03:53:00,43.4,35.7,29.92,WNW,285,2.5,3.5,74,0.00,OVC,FEW,0.00,WeatherDisplay:10.37,2013-10-21 08:53:00,
2013-10-21 03:58:00,43.4,35.3,29.92,WNW,300,4.0,13.8,73,0.00,OVC,FEW,0.00,WeatherDisplay:10.37,2013-10-21 08:58:00,
2013-10-21 04:03:00,43.3,35.2,29.92,NW,326,2.9,4.6,73,0.00,OVC,FEW,0.00,WeatherDisplay:10.37,2013-10-21 09:03:00,
2013-10-21 04:08:00,43.3,35.2,29.92,NNW,327,2.2,6.9,73,0.00,OVC,FEW,0.00,WeatherDisplay:10.37,2013-10-21 09:08:00,
2013-10-21 04:13:00,43.2,35.1,29.92,NW,317,3.4,5.0,73,0.00,OVC,FEW,0.00,WeatherDisplay:10.37,2013-10-21 09:13:00,
2013-10-21 04:18:00,43.1,35.0,29.92,WNW,293,4.2,5.0,73,0.00,OVC,FEW,0.00,WeatherDisplay:10.37,2013-10-21 09:18:00,
2013-10-21 04:23:00,42.9,35.2,29.92,NNW,338,2.4,4.6,74,0.00,OVC,FEW,0.00,WeatherDisplay:10.37,2013-10-21 09:23:00,
2013-10-21 04:28:00,42.8,35.1,29.92,NW,326,4.4,5.0,74,0.00,OVC,FEW,0.00,WeatherDisplay:10.37,2013-10-21 09:28:00,
2013-10-21 04:33:00,42.7,35.0,29.92,NW,318,3.9,6.9,74,0.00,OVC,FEW,0.00,WeatherDisplay:10.37,2013-10-21 09:33:00,
2013-10-21 04:38:00,42.6,34.5,29.92,NW,312,2.6,5.8,73,0.00,OVC,FEW,0.00,WeatherDisplay:10.37,2013-10-21 09:38:00,
2013-10-21 04:43:00,42.5,34.8,29.92,NW,309,2.3,4.6,74,0.00,OVC,FEW,0.00,WeatherDisplay:10.37,2013-10-21 09:43:00,
2013-10-21 04:48:00,42.4,34.7,29.92,WNW,300,2.0,3.5,74,0.00,OVC,FEW,0.00,WeatherDisplay:10.37,2013-10-21 09:48:00,
2013-10-21 04:53:00,42.3,34.3,29.93,West,280,3.1,9.2,73,0.00,OVC,FEW,0.00,WeatherDisplay:10.37,2013-10-21 09:53:00,
2013-10-21 04:58:00,42.2,34.5,29.93,NNW,340,1.9,4.0,74,0.00,OVC,FEW,0.00,WeatherDisplay:10.37,2013-10-21 09:58:00,
2013-10-21 05:03:00,42.2,34.5,29.93,NNW,340,2.2,4.0,74,0.00,OVC,FEW,0.00,WeatherDisplay:10.37,2013-10-21 10:03:00,
2013-10-21 05:08:00,42.1,34.4,29.93,NNW,334,1.1,3.5,74,0.00,OVC,FEW,0.00,WeatherDisplay:10.37,2013-10-21 10:08:00,
2013-10-21 05:13:00,42.0,34.3,29.93,North,355,3.4,8.1,74,0.00,OVC,FEW,0.00,WeatherDisplay:10.37,2013-10-21 10:13:00,
2013-10-21 05:18:00,41.9,34.2,29.93,NNW,340,3.0,8.1,74,0.00,OVC,FEW,0.00,WeatherDisplay:10.37,2013-10-21 10:18:00,
2013-10-21 05:23:00,41.8,34.1,29.94,WNW,286,3.3,8.1,74,0.00,OVC,FEW,0.00,WeatherDisplay:10.37,2013-10-21 10:23:00,
2013-10-21 05:28:00,41.7,34.0,29.94,WNW,301,3.5,9.2,74,0.00,OVC,FEW,0.00,WeatherDisplay:10.37,2013-10-21 10:28:00,
2013-10-21 05:33:00,41.6,33.6,29.94,NW,309,3.2,6.9,73,0.00,OVC,FEW,0.00,WeatherDisplay:10.37,2013-10-21 10:33:00,
2013-10-21 05:38:00,41.6,33.6,29.94,WNW,300,3.5,8.1,73,0.00,OVC,FEW,0.00,WeatherDisplay:10.37,2013-10-21 10:38:00,
2013-10-21 05:43:00,41.5,33.1,29.94,North,350,6.7,9.2,72,0.00,OVC,FEW,0.00,WeatherDisplay:10.37,2013-10-21 10:43:00,
2013-10-21 05:48:00,41.4,33.4,29.94,NW,320,3.6,8.1,73,0.00,OVC,FEW,0.00,WeatherDisplay:10.37,2013-10-21 10:48:00,
2013-10-21 05:53:00,41.3,33.3,29.94,NNW,343,2.3,3.5,73,0.00,OVC,FEW,0.00,WeatherDisplay:10.37,2013-10-21 10:53:00,
2013-10-21 05:58:00,41.2,32.9,29.95,NW,323,2.8,4.6,72,0.00,OVC,FEW,0.00,WeatherDisplay:10.37,2013-10-21 10:58:00,
2013-10-21 06:03:00,41.1,32.4,29.95,NNW,332,3.8,9.2,71,0.00,OVC,FEW,0.00,WeatherDisplay:10.37,2013-10-21 11:03:00,
2013-10-21 06:08:00,41.0,32.7,29.95,WNW,297,2.3,5.0,72,0.00,OVC,FEW,0.00,WeatherDisplay:10.37,2013-10-21 11:08:00,
2013-10-21 06:13:00,41.0,32.7,29.95,WNW,284,1.7,3.5,72,0.00,OVC,FEW,0.00,WeatherDisplay:10.37,2013-10-21 11:13:00,
2013-10-21 06:18:00,40.9,32.2,29.95,NNW,342,3.9,8.1,71,0.00,OVC,FEW,0.00,WeatherDisplay:10.37,2013-10-21 11:18:00,
2013-10-21 06:23:00,40.7,31.7,29.95,WNW,288,3.1,8.1,70,0.00,OVC,FEW,0.00,WeatherDisplay:10.37,2013-10-21 11:23:00,
2013-10-21 06:28:00,40.5,31.5,29.95,NW,326,3.5,6.9,70,0.00,OVC,FEW,0.00,WeatherDisplay:10.37,2013-10-21 11:28:00,
2013-10-21 06:33:00,40.3,31.3,29.95,NNW,329,2.1,4.0,70,0.00,OVC,FEW,0.00,WeatherDisplay:10.37,2013-10-21 11:33:00,
2013-10-21 06:38:00,40.1,31.4,29.96,NNW,335,2.4,3.5,71,0.00,OVC,FEW,0.00,WeatherDisplay:10.37,2013-10-21 11:38:00,
2013-10-21 06:43:00,39.9,31.3,29.96,NW,306,1.3,3.5,71,0.00,OVC,FEW,0.00,WeatherDisplay:10.37,2013-10-21 11:43:00,
2013-10-21 06:48:00,39.6,31.3,29.96,NW,321,1.5,3.5,72,0.00,OVC,FEW,0.00,WeatherDisplay:10.37,2013-10-21 11:48:00,
2013-10-21 06:53:00,39.4,31.5,29.97,NW,319,0.9,2.3,73,0.00,OVC,FEW,0.00,WeatherDisplay:10.37,2013-10-21 11:53:00,
2013-10-21 06:58:00,39.3,31.7,29.97,NW,325,1.2,2.3,74,0.00,OVC,FEW,0.00,WeatherDisplay:10.37,2013-10-21 11:58:00,
2013-10-21 07:03:00,39.0,31.7,29.97,NW,325,0.2,1.2,75,0.00,OVC,FEW,0.00,WeatherDisplay:10.37,2013-10-21 12:03:00,
2013-10-21 07:08:00,38.9,31.6,29.97,NW,325,0.5,1.2,75,0.00,OVC,FEW,0.00,WeatherDisplay:10.37,2013-10-21 12:08:00,
2013-10-21 07:13:00,38.6,31.7,29.97,NW,325,0.7,1.2,76,0.00,OVC,FEW,0.00,WeatherDisplay:10.37,2013-10-21 12:13:00,
2013-10-21 07:18:00,38.4,31.5,29.97,NW,325,0.3,1.2,76,0.00,OVC,FEW,0.00,WeatherDisplay:10.37,2013-10-21 12:18:00,
2013-10-21 07:23:00,38.2,31.3,29.97,NW,326,0.4,3.5,76,0.00,OVC,FEW,0.00,WeatherDisplay:10.37,2013-10-21 12:23:00,
2013-10-21 07:28:00,38.0,31.1,29.97,NNW,329,0.7,2.3,76,0.00,OVC,FEW,0.00,WeatherDisplay:10.37,2013-10-21 12:28:00,
2013-10-21 07:33:00,37.9,31.0,29.97,NW,309,0.9,2.3,76,0.00,OVC,FEW,0.00,WeatherDisplay:10.37,2013-10-21 12:33:00,
2013-10-21 07:38:00,37.7,30.8,29.97,NNW,338,0.9,3.5,76,0.00,OVC,FEW,0.00,WeatherDisplay:10.37,2013-10-21 12:38:00,
2013-10-21 07:43:00,37.7,31.1,29.97,NNW,335,0.2,1.2,77,0.00,OVC,FEW,0.00,WeatherDisplay:10.37,2013-10-21 12:43:00,
2013-10-21 07:48:00,37.7,31.1,29.97,NNW,335,0.1,1.2,77,0.00,OVC,FEW,0.00,WeatherDisplay:10.37,2013-10-21 12:48:00,
2013-10-21 07:53:00,37.7,31.1,29.98,NNW,335,0.1,1.2,77,0.00,OVC,FEW,0.00,WeatherDisplay:10.37,2013-10-21 12:53:00,
2013-10-21 07:58:00,37.7,31.1,29.98,NNW,335,0.4,1.2,77,0.00,OVC,FEW,0.00,WeatherDisplay:10.37,2013-10-21 12:58:00,
2013-10-21 08:03:00,37.7,31.1,29.98,NNW,335,0.1,1.2,77,0.00,OVC,FEW,0.00,WeatherDisplay:10.37,2013-10-21 13:03:00,
2013-10-21 08:08:00,37.7,31.1,29.99,West,279,0.3,1.2,77,0.00,OVC,FEW,0.00,WeatherDisplay:10.37,2013-10-21 13:08:00,
2013-10-21 08:13:00,37.7,31.1,29.99,West,267,0.3,1.2,77,0.00,OVC,FEW,0.00,WeatherDisplay:10.37,2013-10-21 13:13:00,
2013-10-21 08:18:00,37.8,31.2,29.99,West,267,0.3,1.2,77,0.00,OVC,FEW,0.00,WeatherDisplay:10.37,2013-10-21 13:18:00,
2013-10-21 08:23:00,37.9,31.3,29.99,NW,316,1.3,3.5,77,0.00,OVC,FEW,0.00,WeatherDisplay:10.37,2013-10-21 13:23:00,
2013-10-21 08:28:00,38.0,31.4,29.99,NW,309,0.5,5.8,77,0.00,OVC,FEW,0.00,WeatherDisplay:10.37,2013-10-21 13:28:00,
2013-10-21 08:33:00,38.2,31.6,29.99,WNW,292,0.9,2.3,77,0.00,OVC,FEW,0.00,WeatherDisplay:10.37,2013-10-21 13:33:00,
2013-10-21 08:38:00,38.3,31.7,29.99,NW,309,1.2,2.3,77,0.00,OVC,FEW,0.00,WeatherDisplay:10.37,2013-10-21 13:38:00,
2013-10-21 08:43:00,38.4,31.8,29.99,WNW,288,1.0,2.3,77,0.00,OVC,FEW,0.00,WeatherDisplay:10.37,2013-10-21 13:43:00,
2013-10-21 08:48:00,38.5,31.9,29.99,NNW,332,1.1,3.5,77,0.00,OVC,FEW,0.00,WeatherDisplay:10.37,2013-10-21 13:48:00,
2013-10-21 08:53:00,38.7,32.1,29.99,WNW,286,1.5,4.6,77,0.00,OVC,FEW,0.00,WeatherDisplay:10.37,2013-10-21 13:53:00,
2013-10-21 08:58:00,38.8,32.2,29.99,NW,319,2.2,3.5,77,0.00,OVC,FEW,0.00,WeatherDisplay:10.37,2013-10-21 13:58:00,
2013-10-21 09:03:00,39.0,32.1,29.99,NW,323,1.6,4.6,76,0.00,OVC,FEW,0.00,WeatherDisplay:10.37,2013-10-21 14:03:00,
2013-10-21 09:08:00,39.3,32.7,30.00,NNW,334,3.0,5.8,77,0.00,OVC,FEW,0.00,WeatherDisplay:10.37,2013-10-21 14:08:00,
2013-10-21 09:13:00,39.6,32.7,30.00,SW,236,1.3,4.0,76,0.00,OVC,FEW,0.00,WeatherDisplay:10.37,2013-10-21 14:13:00,
2013-10-21 09:18:00,40.0,33.0,30.00,North,351,1.8,4.0,76,0.00,OVC,FEW,0.00,WeatherDisplay:10.37,2013-10-21 14:18:00,
2013-10-21 09:23:00,40.1,32.8,30.00,WSW,250,2.1,3.5,75,0.00,OVC,FEW,0.00,WeatherDisplay:10.37,2013-10-21 14:23:00,
2013-10-21 09:28:00,40.3,32.7,30.00,West,281,2.4,3.5,74,0.00,OVC,FEW,0.00,WeatherDisplay:10.37,2013-10-21 14:28:00,
2013-10-21 09:33:00,40.2,32.2,30.00,WNW,292,3.3,5.8,73,0.00,OVC,FEW,0.00,WeatherDisplay:10.37,2013-10-21 14:33:00,
2013-10-21 09:38:00,40.2,31.9,30.00,NW,306,1.7,4.0,72,0.00,OVC,FEW,0.00,WeatherDisplay:10.37,2013-10-21 14:38:00,
2013-10-21 09:43:00,40.3,30.9,30.00,NNE,27,4.4,6.0,69,0.00,OVC,FEW,0.00,WeatherDisplay:10.37,2013-10-21 14:43:00,
2013-10-21 09:48:00,40.2,30.5,30.00,WSW,250,1.9,3.5,68,0.00,OVC,FEW,0.00,WeatherDisplay:10.37,2013-10-21 14:48:00,
2013-10-21 09:53:00,40.2,29.4,30.01,NW,307,3.0,11.5,65,0.00,OVC,FEW,0.00,WeatherDisplay:10.37,2013-10-21 14:53:00,
2013-10-21 09:58:00,40.4,28.8,30.00,NW,322,2.8,5.8,63,0.00,OVC,FEW,0.00,WeatherDisplay:10.37,2013-10-21 14:58:00,
2013-10-21 10:03:00,40.6,27.8,30.01,WSW,239,3.8,11.5,60,0.00,OVC,FEW,0.00,WeatherDisplay:10.37,2013-10-21 15:03:00,
2013-10-21 10:08:00,41.0,27.8,30.01,WSW,244,1.7,3.5,59,0.00,OVC,FEW,0.00,WeatherDisplay:10.37,2013-10-21 15:08:00,
2013-10-21 10:13:00,41.5,27.8,30.01,NNW,331,1.7,3.5,58,0.00,OVC,FEW,0.00,WeatherDisplay:10.37,2013-10-21 15:13:00,
2013-10-21 10:18:00,41.8,27.7,30.01,NNW,329,3.1,8.1,57,0.00,OVC,FEW,0.00,WeatherDisplay:10.37,2013-10-21 15:18:00,
2013-10-21 10:23:00,42.1,27.5,30.01,NW,317,3.1,6.0,56,0.00,OVC,FEW,0.00,WeatherDisplay:10.37,2013-10-21 15:23:00,
2013-10-21 10:28:00,41.9,27.3,30.01,WNW,298,3.0,11.5,56,0.00,OVC,FEW,0.00,WeatherDisplay:10.37,2013-10-21 15:28:00,
2013-10-21 10:33:00,42.0,27.4,30.00,SW,222,1.3,3.5,56,0.00,OVC,FEW,0.00,WeatherDisplay:10.37,2013-10-21 15:33:00,
2013-10-21 10:38:00,42.5,27.9,30.00,West,279,2.7,4.6,56,0.00,OVC,FEW,0.00,WeatherDisplay:10.37,2013-10-21 15:38:00,
2013-10-21 10:43:00,42.9,27.8,30.01,North,5,3.7,4.0,55,0.00,OVC,FEW,0.00,WeatherDisplay:10.37,2013-10-21 15:43:00,
2013-10-21 10:48:00,42.8,28.2,30.00,NW,323,2.0,3.5,56,0.00,OVC,FEW,0.00,WeatherDisplay:10.37,2013-10-21 15:48:00,
2013-10-21 10:53:00,43.1,27.6,30.01,West,273,3.0,11.5,54,0.00,OVC,FEW,0.00,WeatherDisplay:10.37,2013-10-21 15:53:00,
2013-10-21 10:58:00,43.1,28.0,30.00,SW,236,1.9,3.5,55,0.00,OVC,FEW,0.00,WeatherDisplay:10.37,2013-10-21 15:58:00,
2013-10-21 11:03:00,43.0,27.0,30.01,WNW,298,3.2,5.8,53,0.00,OVC,FEW,0.00,WeatherDisplay:10.37,2013-10-21 16:03:00,
2013-10-21 11:08:00,42.9,26.9,30.00,WNW,296,2.4,5.8,53,0.00,OVC,FEW,0.00,WeatherDisplay:10.37,2013-10-21 16:08:00,
2013-10-21 11:13:00,42.8,26.4,30.00,WNW,301,2.4,3.5,52,0.00,OVC,FEW,0.00,WeatherDisplay:10.37,2013-10-21 16:13:00,
2013-10-21 11:18:00,42.9,26.9,30.00,ESE,105,2.7,4.6,53,0.00,OVC,FEW,0.00,WeatherDisplay:10.37,2013-10-21 16:18:00,
2013-10-21 11:23:00,43.2,27.7,30.00,SW,215,2.5,4.6,54,0.00,OVC,FEW,0.00,WeatherDisplay:10.37,2013-10-21 16:23:00,
2013-10-21 11:28:00,43.9,27.4,30.00,NW,308,2.5,5.8,52,0.00,OVC,FEW,0.00,WeatherDisplay:10.37,2013-10-21 16:28:00,
2013-10-21 11:33:00,43.7,27.7,30.01,WNW,284,1.4,4.6,53,0.00,OVC,FEW,0.00,WeatherDisplay:10.37,2013-10-21 16:33:00,
2013-10-21 11:38:00,44.0,27.5,30.01,SW,230,2.5,4.6,52,0.00,OVC,FEW,0.00,WeatherDisplay:10.37,2013-10-21 16:38:00,
2013-10-21 11:43:00,43.8,28.2,30.01,NNW,334,2.7,8.1,54,0.00,OVC,FEW,0.00,WeatherDisplay:10.37,2013-10-21 16:43:00,
2013-10-21 11:48:00,43.6,26.6,30.00,WNW,285,6.1,11.5,51,0.00,OVC,FEW,0.00,WeatherDisplay:10.37,2013-10-21 16:48:00,
2013-10-21 11:53:00,43.1,27.1,30.01,WNW,282,2.1,4.6,53,0.00,OVC,FEW,0.00,WeatherDisplay:10.37,2013-10-21 16:53:00,
2013-10-21 11:58:00,43.1,26.7,30.01,NW,319,3.5,9.2,52,0.00,OVC,FEW,0.00,WeatherDisplay:10.37,2013-10-21 16:58:00,
2013-10-21 12:03:00,43.0,26.6,30.01,WNW,292,3.3,4.6,52,0.00,OVC,FEW,0.00,WeatherDisplay:10.37,2013-10-21 17:03:00,
2013-10-21 12:08:00,42.8,25.9,30.00,NW,317,3.8,10.4,51,0.00,OVC,FEW,0.00,WeatherDisplay:10.37,2013-10-21 17:08:00,
2013-10-21 12:13:00,42.7,26.3,30.00,NNW,333,4.5,12.7,52,0.00,OVC,FEW,0.00,WeatherDisplay:10.37,2013-10-21 17:13:00,
2013-10-21 12:18:00,42.4,25.5,30.01,NNW,338,6.0,12.0,51,0.00,OVC,FEW,0.00,WeatherDisplay:10.37,2013-10-21 17:18:00,
2013-10-21 12:23:00,41.5,25.2,30.01,West,277,4.3,11.5,52,0.00,OVC,FEW,0.00,WeatherDisplay:10.37,2013-10-21 17:23:00,
2013-10-21 12:28:00,41.2,26.2,30.01,NNW,336,3.3,5.8,55,0.00,OVC,FEW,0.00,WeatherDisplay:10.37,2013-10-21 17:28:00,
2013-10-21 12:33:00,41.8,26.8,30.00,WNW,302,2.2,11.0,55,0.00,OVC,FEW,0.00,WeatherDisplay:10.37,2013-10-21 17:33:00,
2013-10-21 12:38:00,42.7,25.8,30.00,West,277,2.3,3.5,51,0.00,OVC,FEW,0.00,WeatherDisplay:10.37,2013-10-21 17:38:00,
2013-10-21 12:43:00,43.6,26.2,30.00,SW,227,3.3,6.9,50,0.00,OVC,FEW,0.00,WeatherDisplay:10.37,2013-10-21 17:43:00,
2013-10-21 12:48:00,44.4,25.9,30.00,SW,224,3.8,6.9,48,0.00,OVC,FEW,0.00,WeatherDisplay:10.37,2013-10-21 17:48:00,
2013-10-21 12:54:00,44.9,25.9,30.00,SSW,196,2.3,4.6,47,0.00,OVC,FEW,0.00,WeatherDisplay:10.37,2013-10-21 17:54:00,
2013-10-21 12:59:00,45.7,26.6,30.00,SE,142,2.3,4.6,47,0.00,OVC,FEW,0.00,WeatherDisplay:10.37,2013-10-21 17:59:00,
2013-10-21 13:04:00,46.0,25.8,30.00,West,275,3.1,4.6,45,0.00,OVC,FEW,0.00,WeatherDisplay:10.37,2013-10-21 18:04:00,
2013-10-21 13:09:00,46.0,26.4,29.99,WNW,302,3.5,8.0,46,0.00,OVC,FEW,0.00,WeatherDisplay:10.37,2013-10-21 18:09:00,
2013-10-21 13:14:00,46.1,25.9,29.99,WNW,282,2.1,3.5,45,0.00,OVC,FEW,0.00,WeatherDisplay:10.37,2013-10-21 18:14:00,
2013-10-21 13:19:00,45.8,25.1,29.99,NW,309,3.0,6.9,44,0.00,OVC,FEW,0.00,WeatherDisplay:10.37,2013-10-21 18:19:00,
2013-10-21 13:24:00,45.6,25.5,29.99,NW,317,2.9,5.8,45,0.00,OVC,FEW,0.00,WeatherDisplay:10.37,2013-10-21 18:24:00,
2013-10-21 13:29:00,46.3,25.6,29.99,West,274,2.1,3.5,44,0.00,OVC,FEW,0.00,WeatherDisplay:10.37,2013-10-21 18:29:00,
2013-10-21 13:34:00,46.9,25.5,29.99,WNW,290,1.5,3.5,43,0.00,OVC,FEW,0.00,WeatherDisplay:10.37,2013-10-21 18:34:00,
2013-10-21 13:39:00,47.0,25.1,29.98,WNW,298,4.0,9.2,42,0.00,OVC,FEW,0.00,WeatherDisplay:10.37,2013-10-21 18:39:00,
2013-10-21 13:44:00,46.3,25.0,29.98,NW,315,3.7,6.9,43,0.00,OVC,FEW,0.00,WeatherDisplay:10.37,2013-10-21 18:44:00,
2013-10-21 13:49:00,46.1,24.8,29.99,NNE,12,2.9,10.4,43,0.00,OVC,FEW,0.00,WeatherDisplay:10.37,2013-10-21 18:49:00,
2013-10-21 13:54:00,45.7,24.5,29.98,NNE,18,6.0,11.5,43,0.00,OVC,FEW,0.00,WeatherDisplay:10.37,2013-10-21 18:54:00,
2013-10-21 13:59:00,45.7,24.5,29.98,NNW,329,2.8,8.0,43,0.00,OVC,FEW,0.00,WeatherDisplay:10.37,2013-10-21 18:59:00,
2013-10-21 14:04:00,45.5,24.3,29.97,NNW,337,2.4,3.5,43,0.00,OVC,FEW,0.00,WeatherDisplay:10.37,2013-10-21 19:04:00,
2013-10-21 14:09:00,45.8,24.5,29.97,NE,55,3.5,5.0,43,0.00,OVC,FEW,0.00,WeatherDisplay:10.37,2013-10-21 19:09:00,
2013-10-21 14:14:00,45.3,22.4,29.98,NW,315,7.9,11.5,40,0.00,OVC,FEW,0.00,WeatherDisplay:10.37,2013-10-21 19:14:00,
2013-10-21 14:19:00,45.0,23.8,29.97,North,5,1.8,4.6,43,0.00,OVC,FEW,0.00,WeatherDisplay:10.37,2013-10-21 19:19:00,
2013-10-21 14:24:00,45.5,23.7,29.97,WSW,252,2.8,4.6,42,0.00,OVC,FEW,0.00,WeatherDisplay:10.37,2013-10-21 19:24:00,
2013-10-21 14:29:00,46.0,23.6,29.97,SW,220,4.0,4.0,41,0.00,OVC,FEW,0.00,WeatherDisplay:10.37,2013-10-21 19:29:00,
2013-10-21 14:34:00,46.3,24.4,29.97,West,273,1.9,3.5,42,0.00,OVC,FEW,0.00,WeatherDisplay:10.37,2013-10-21 19:34:00,
2013-10-21 14:39:00,46.3,23.9,29.97,NW,320,4.0,8.1,41,0.00,OVC,FEW,0.00,WeatherDisplay:10.37,2013-10-21 19:39:00,
2013-10-21 14:44:00,46.6,24.7,29.97,WNW,300,3.6,6.9,42,0.00,OVC,FEW,0.00,WeatherDisplay:10.37,2013-10-21 19:44:00,
2013-10-21 14:49:00,46.7,24.8,29.97,NNW,336,2.9,8.1,42,0.00,OVC,FEW,0.00,WeatherDisplay:10.37,2013-10-21 19:49:00,
2013-10-21 14:54:00,47.1,24.6,29.97,WNW,282,4.3,9.0,41,0.00,OVC,FEW,0.00,WeatherDisplay:10.37,2013-10-21 19:54:00,
2013-10-21 14:59:00,46.9,23.8,29.97,North,9,5.1,9.2,40,0.00,OVC,FEW,0.00,WeatherDisplay:10.37,2013-10-21 19:59:00,
2013-10-21 15:04:00,46.6,24.7,29.97,WNW,287,2.8,8.1,42,0.00,OVC,FEW,0.00,WeatherDisplay:10.37,2013-10-21 20:04:00,
2013-10-21 15:09:00,46.9,24.4,29.97,SSE,160,1.4,3.5,41,0.00,OVC,FEW,0.00,WeatherDisplay:10.37,2013-10-21 20:09:00,
2013-10-21 15:14:00,47.0,23.9,29.97,West,259,3.7,8.1,40,0.00,OVC,FEW,0.00,WeatherDisplay:10.37,2013-10-21 20:14:00,
2013-10-21 15:19:00,47.0,23.9,29.98,WNW,295,2.8,4.6,40,0.00,OVC,FEW,0.00,WeatherDisplay:10.37,2013-10-21 20:19:00,
2013-10-21 15:24:00,47.0,24.5,29.97,SW,232,1.8,8.1,41,0.00,OVC,FEW,0.00,WeatherDisplay:10.37,2013-10-21 20:24:00,
2013-10-21 15:29:00,47.8,24.6,29.97,WNW,288,1.8,3.5,40,0.00,OVC,FEW,0.00,WeatherDisplay:10.37,2013-10-21 20:29:00,
2013-10-21 15:34:00,47.0,23.3,29.97,NNW,335,5.0,9.2,39,0.00,OVC,FEW,0.00,WeatherDisplay:10.37,2013-10-21 20:34:00,
2013-10-21 15:39:00,46.3,23.3,29.97,NW,304,4.9,11.5,40,0.00,OVC,FEW,0.00,WeatherDisplay:10.37,2013-10-21 20:39:00,
2013-10-21 15:44:00,46.5,24.6,29.97,North,9,2.6,4.0,42,0.00,OVC,FEW,0.00,WeatherDisplay:10.37,2013-10-21 20:44:00,
2013-10-21 15:49:00,46.1,23.1,29.98,North,5,5.2,9.2,40,0.00,OVC,FEW,0.00,WeatherDisplay:10.37,2013-10-21 20:49:00,
2013-10-21 15:54:00,46.2,23.8,29.98,NW,321,3.2,5.8,41,0.00,OVC,FEW,0.00,WeatherDisplay:10.37,2013-10-21 20:54:00,
2013-10-21 15:59:00,46.2,23.8,29.98,NW,315,4.8,7.0,41,0.00,OVC,FEW,0.00,WeatherDisplay:10.37,2013-10-21 20:59:00,
2013-10-21 16:04:00,45.4,23.6,29.98,WNW,288,2.6,10.4,42,0.00,OVC,FEW,0.00,WeatherDisplay:10.37,2013-10-21 21:04:00,
2013-10-21 16:09:00,45.2,24.0,29.98,NNW,340,3.4,9.2,43,0.00,OVC,FEW,0.00,WeatherDisplay:10.37,2013-10-21 21:09:00,
2013-10-21 16:14:00,45.0,23.3,29.98,NNW,342,3.7,10.4,42,0.00,OVC,FEW,0.00,WeatherDisplay:10.37,2013-10-21 21:14:00,
2013-10-21 16:19:00,45.0,24.4,29.98,North,360,3.5,8.1,44,0.00,OVC,FEW,0.00,WeatherDisplay:10.37,2013-10-21 21:19:00,
2013-10-21 16:24:00,45.2,23.4,29.98,WNW,296,3.2,6.9,42,0.00,OVC,FEW,0.00,WeatherDisplay:10.37,2013-10-21 21:24:00,
2013-10-21 16:29:00,45.2,23.4,29.98,NNW,342,4.6,6.0,42,0.00,OVC,FEW,0.00,WeatherDisplay:10.37,2013-10-21 21:29:00,
2013-10-21 16:34:00,45.0,23.8,29.98,NW,317,2.7,5.0,43,0.00,OVC,FEW,0.00,WeatherDisplay:10.37,2013-10-21 21:34:00,
2013-10-21 16:39:00,44.8,24.2,29.99,WNW,284,2.0,3.5,44,0.00,OVC,FEW,0.00,WeatherDisplay:10.37,2013-10-21 21:39:00,
2013-10-21 16:44:00,44.7,24.1,29.99,West,275,1.6,4.6,44,0.00,OVC,FEW,0.00,WeatherDisplay:10.37,2013-10-21 21:44:00,
2013-10-21 16:49:00,44.7,24.6,29.99,NW,311,2.4,4.0,45,0.00,OVC,FEW,0.00,WeatherDisplay:10.37,2013-10-21 21:49:00,
2013-10-21 16:54:00,44.8,24.7,29.99,WNW,285,2.8,4.6,45,0.00,OVC,FEW,0.00,WeatherDisplay:10.37,2013-10-21 21:54:00,
2013-10-21 16:59:00,44.9,24.8,29.98,West,272,1.1,3.5,45,0.00,OVC,FEW,0.00,WeatherDisplay:10.37,2013-10-21 21:59:00,
2013-10-21 17:04:00,45.0,24.9,29.98,NW,321,1.9,5.8,45,0.00,OVC,FEW,0.00,WeatherDisplay:10.37,2013-10-21 22:04:00,
2013-10-21 17:09:00,45.0,24.4,29.98,NW,304,3.2,8.0,44,0.00,OVC,FEW,0.00,WeatherDisplay:10.37,2013-10-21 22:09:00,
2013-10-21 17:14:00,44.9,24.3,29.98,NNW,328,3.2,5.8,44,0.00,OVC,FEW,0.00,WeatherDisplay:10.37,2013-10-21 22:14:00,
2013-10-21 17:19:00,44.9,24.3,29.99,WNW,290,1.4,3.5,44,0.00,OVC,FEW,0.00,WeatherDisplay:10.37,2013-10-21 22:19:00,
2013-10-21 17:24:00,44.8,24.7,29.99,NW,314,2.9,8.1,45,0.00,OVC,FEW,0.00,WeatherDisplay:10.37,2013-10-21 22:24:00,
2013-10-21 17:29:00,44.6,24.5,29.99,NW,323,1.7,3.5,45,0.00,OVC,FEW,0.00,WeatherDisplay:10.37,2013-10-21 22:29:00,
2013-10-21 17:34:00,44.5,25.5,29.99,NW,314,1.7,4.0,47,0.00,OVC,FEW,0.00,WeatherDisplay:10.37,2013-10-21 22:34:00,
2013-10-21 17:39:00,44.3,24.8,29.99,NW,323,2.4,3.5,46,0.00,OVC,FEW,0.00,WeatherDisplay:10.37,2013-10-21 22:39:00,
2013-10-21 17:44:00,44.0,24.5,29.99,NW,319,2.3,3.5,46,0.00,OVC,FEW,0.00,WeatherDisplay:10.37,2013-10-21 22:44:00,
2013-10-21 17:49:00,43.9,24.9,29.99,North,349,1.5,8.1,47,0.00,OVC,FEW,0.00,WeatherDisplay:10.37,2013-10-21 22:49:00,
2013-10-21 17:54:00,43.7,24.8,29.99,NW,314,2.1,4.6,47,0.00,OVC,FEW,0.00,WeatherDisplay:10.37,2013-10-21 22:54:00,
2013-10-21 17:59:00,43.6,25.2,29.99,NW,306,1.2,2.3,48,0.00,OVC,FEW,0.00,WeatherDisplay:10.37,2013-10-21 22:59:00,
2013-10-21 18:04:00,43.4,25.0,29.99,NW,317,1.6,3.5,48,0.00,OVC,FEW,0.00,WeatherDisplay:10.37,2013-10-21 23:04:00,
2013-10-21 18:09:00,43.3,25.9,29.99,NW,317,0.2,1.0,50,0.00,OVC,FEW,0.00,WeatherDisplay:10.37,2013-10-21 23:09:00,
2013-10-21 18:14:00,43.0,26.1,29.99,NW,317,0.0,1.2,51,0.00,OVC,FEW,0.00,WeatherDisplay:10.37,2013-10-21 23:14:00,
2013-10-21 18:19:00,42.7,25.8,29.99,NW,317,0.0,0.0,51,0.00,OVC,FEW,0.00,WeatherDisplay:10.37,2013-10-21 23:19:00,
2013-10-21 18:24:00,42.4,26.0,29.99,NW,317,0.0,0.0,52,0.00,OVC,FEW,0.00,WeatherDisplay:10.37,2013-10-21 23:24:00,
2013-10-21 18:29:00,42.1,25.7,29.99,NW,317,0.0,0.0,52,0.00,OVC,FEW,0.00,WeatherDisplay:10.37,2013-10-21 23:29:00,
2013-10-21 18:34:00,41.8,26.4,29.99,NW,317,0.0,0.0,54,0.00,OVC,FEW,0.00,WeatherDisplay:10.37,2013-10-21 23:34:00,
2013-10-21 18:39:00,41.5,26.5,29.99,NW,317,0.0,0.0,55,0.00,OVC,FEW,0.00,WeatherDisplay:10.37,2013-10-21 23:39:00,
2013-10-21 18:44:00,41.2,27.1,29.99,NW,317,0.0,0.0,57,0.00,OVC,FEW,0.00,WeatherDisplay:10.37,2013-10-21 23:44:00,
2013-10-21 18:49:00,41.0,26.9,29.99,NW,317,0.0,0.0,57,0.00,OVC,FEW,0.00,WeatherDisplay:10.37,2013-10-21 23:49:00,
2013-10-21 18:54:00,40.9,27.2,29.99,NW,317,0.0,0.0,58,0.00,OVC,FEW,0.00,WeatherDisplay:10.37,2013-10-21 23:54:00,
2013-10-21 18:59:00,40.7,27.9,29.99,NW,317,0.0,0.0,60,0.00,OVC,FEW,0.00,WeatherDisplay:10.37,2013-10-21 23:59:00,
2013-10-21 19:04:00,40.5,27.7,29.99,NW,317,0.0,0.0,60,0.00,OVC,FEW,0.00,WeatherDisplay:10.37,2013-10-22 00:04:00,
2013-10-21 19:09:00,40.3,27.9,29.99,NW,317,0.0,0.0,61,0.00,OVC,FEW,0.00,WeatherDisplay:10.37,2013-10-22 00:09:00,
2013-10-21 19:14:00,40.2,27.8,30.00,NW,317,0.0,0.0,61,0.00,OVC,FEW,0.00,WeatherDisplay:10.37,2013-10-22 00:14:00,
2013-10-21 19:19:00,40.1,28.1,30.00,NW,317,0.0,0.0,62,0.00,OVC,FEW,0.00,WeatherDisplay:10.37,2013-10-22 00:19:00,
2013-10-21 19:24:00,40.0,28.4,29.99,NW,317,0.0,0.0,63,0.00,OVC,FEW,0.00,WeatherDisplay:10.37,2013-10-22 00:24:00,
2013-10-21 19:29:00,40.0,28.8,29.99,NW,317,0.0,0.0,64,0.00,OVC,FEW,0.00,WeatherDisplay:10.37,2013-10-22 00:29:00,
2013-10-21 19:34:00,40.0,28.4,29.99,NW,317,0.0,0.0,63,0.00,OVC,FEW,0.00,WeatherDisplay:10.37,2013-10-22 00:34:00,
2013-10-21 19:39:00,40.0,28.8,29.99,NW,317,0.0,0.0,64,0.00,OVC,FEW,0.00,WeatherDisplay:10.37,2013-10-22 00:39:00,
2013-10-21 19:44:00,40.0,28.8,29.99,NW,317,0.0,0.0,64,0.00,OVC,FEW,0.00,WeatherDisplay:10.37,2013-10-22 00:44:00,
2013-10-21 19:49:00,40.0,28.8,29.99,NW,317,0.0,0.0,64,0.00,OVC,FEW,0.00,WeatherDisplay:10.37,2013-10-22 00:49:00,
2013-10-21 19:54:00,40.0,28.8,29.99,NW,317,0.0,0.0,64,0.00,OVC,FEW,0.00,WeatherDisplay:10.37,2013-10-22 00:54:00,
2013-10-21 19:59:00,39.9,28.7,29.99,NW,317,0.0,0.0,64,0.00,OVC,FEW,0.00,WeatherDisplay:10.37,2013-10-22 00:59:00,
2013-10-21 20:04:00,39.9,28.7,29.99,NW,317,0.0,0.0,64,0.00,OVC,FEW,0.00,WeatherDisplay:10.37,2013-10-22 01:04:00,
2013-10-21 20:09:00,39.9,29.1,29.99,NW,317,0.0,0.0,65,0.00,OVC,FEW,0.00,WeatherDisplay:10.37,2013-10-22 01:09:00,
2013-10-21 20:14:00,40.0,29.6,29.99,NW,317,0.0,0.0,66,0.00,OVC,FEW,0.00,WeatherDisplay:10.37,2013-10-22 01:14:00,
2013-10-21 20:19:00,40.1,30.0,29.99,NW,317,0.0,0.0,67,0.00,OVC,FEW,0.00,WeatherDisplay:10.37,2013-10-22 01:19:00,
2013-10-21 20:24:00,40.1,30.0,29.99,NW,317,0.0,0.0,67,0.00,OVC,FEW,0.00,WeatherDisplay:10.37,2013-10-22 01:24:00,
2013-10-21 20:29:00,40.1,30.4,29.99,NW,317,0.0,0.0,68,0.00,OVC,FEW,0.00,WeatherDisplay:10.37,2013-10-22 01:29:00,
2013-10-21 20:34:00,40.1,30.4,29.99,NW,317,0.0,0.0,68,0.00,OVC,FEW,0.00,WeatherDisplay:10.37,2013-10-22 01:34:00,
2013-10-21 20:39:00,40.0,29.9,29.99,NW,317,0.0,0.0,67,0.00,OVC,FEW,0.00,WeatherDisplay:10.37,2013-10-22 01:39:00,
2013-10-21 20:44:00,39.8,29.0,29.99,NW,317,0.0,0.0,65,0.00,OVC,FEW,0.00,WeatherDisplay:10.37,2013-10-22 01:44:00,
2013-10-21 20:49:00,39.6,28.4,29.99,NW,317,0.0,0.0,64,0.00,OVC,FEW,0.00,WeatherDisplay:10.37,2013-10-22 01:49:00,
2013-10-21 20:54:00,39.6,28.0,29.99,NW,317,0.0,0.0,63,0.00,OVC,FEW,0.00,WeatherDisplay:10.37,2013-10-22 01:54:00,
2013-10-21 20:59:00,39.5,28.7,29.99,NW,317,0.0,0.0,65,0.00,OVC,FEW,0.00,WeatherDisplay:10.37,2013-10-22 01:59:00,
2013-10-21 21:04:00,39.3,28.5,29.99,NW,317,0.0,0.0,65,0.00,OVC,FEW,0.00,WeatherDisplay:10.37,2013-10-22 02:04:00,
2013-10-21 21:09:00,39.2,28.0,29.99,NW,317,0.0,0.0,64,0.00,OVC,FEW,0.00,WeatherDisplay:10.37,2013-10-22 02:09:00,
2013-10-21 21:14:00,39.0,27.8,29.99,NW,317,0.1,1.2,64,0.00,OVC,FEW,0.00,WeatherDisplay:10.37,2013-10-22 02:14:00,
2013-10-21 21:19:00,39.1,27.6,30.00,NW,317,0.2,1.2,63,0.00,OVC,FEW,0.00,WeatherDisplay:10.37,2013-10-22 02:19:00,
2013-10-21 21:24:00,39.1,27.6,30.00,NW,317,0.0,1.2,63,0.00,OVC,FEW,0.00,WeatherDisplay:10.37,2013-10-22 02:24:00,
2013-10-21 21:29:00,39.1,27.6,30.00,NW,317,0.0,1.2,63,0.00,OVC,FEW,0.00,WeatherDisplay:10.37,2013-10-22 02:29:00,
2013-10-21 21:34:00,39.1,27.6,30.00,NW,317,0.1,1.2,63,0.00,OVC,FEW,0.00,WeatherDisplay:10.37,2013-10-22 02:34:00,
2013-10-21 21:39:00,39.1,27.6,30.00,NW,317,0.0,0.0,63,0.00,OVC,FEW,0.00,WeatherDisplay:10.37,2013-10-22 02:39:00,
2013-10-21 21:44:00,39.1,27.6,30.00,NW,317,0.0,0.0,63,0.00,OVC,FEW,0.00,WeatherDisplay:10.37,2013-10-22 02:44:00,
2013-10-21 21:49:00,39.1,27.9,30.00,NW,317,0.2,1.2,64,0.00,OVC,FEW,0.00,WeatherDisplay:10.37,2013-10-22 02:49:00,
2013-10-21 21:54:00,39.0,27.8,30.00,NW,317,0.0,0.0,64,0.00,OVC,FEW,0.00,WeatherDisplay:10.37,2013-10-22 02:54:00,
2013-10-21 21:59:00,38.9,27.8,30.00,NW,317,0.0,0.0,64,0.00,OVC,FEW,0.00,WeatherDisplay:10.37,2013-10-22 02:59:00,
2013-10-21 22:04:00,38.9,27.8,30.00,NW,317,0.0,0.0,64,0.00,OVC,FEW,0.00,WeatherDisplay:10.37,2013-10-22 03:04:00,
2013-10-21 22:09:00,38.9,27.8,30.00,NW,317,0.0,0.0,64,0.00,OVC,FEW,0.00,WeatherDisplay:10.37,2013-10-22 03:09:00,
2013-10-21 22:14:00,38.8,27.7,30.00,NW,318,0.0,0.0,64,0.00,OVC,FEW,0.00,WeatherDisplay:10.37,2013-10-22 03:14:00,
2013-10-21 22:19:00,38.6,27.8,30.00,NW,318,0.0,0.0,65,0.00,OVC,FEW,0.00,WeatherDisplay:10.37,2013-10-22 03:19:00,
2013-10-21 22:24:00,38.5,27.7,30.00,NW,318,0.0,0.0,65,0.00,OVC,FEW,0.00,WeatherDisplay:10.37,2013-10-22 03:24:00,
2013-10-21 22:29:00,38.4,27.7,30.00,NW,318,0.0,0.0,65,0.00,OVC,FEW,0.00,WeatherDisplay:10.37,2013-10-22 03:29:00,
2013-10-21 22:34:00,38.2,27.8,30.00,NW,318,0.0,0.0,66,0.00,OVC,FEW,0.00,WeatherDisplay:10.37,2013-10-22 03:34:00,
2013-10-21 22:39:00,38.1,27.7,30.00,NW,318,0.0,0.0,66,0.00,OVC,FEW,0.00,WeatherDisplay:10.37,2013-10-22 03:39:00,
2013-10-21 22:44:00,37.9,27.9,30.00,NW,318,0.0,0.0,67,0.00,OVC,FEW,0.00,WeatherDisplay:10.37,2013-10-22 03:44:00,
2013-10-21 22:49:00,37.7,28.1,30.00,NW,318,0.0,0.0,68,0.00,OVC,FEW,0.00,WeatherDisplay:10.37,2013-10-22 03:49:00,
2013-10-21 22:54:00,37.5,27.9,30.00,NW,318,0.0,0.0,68,0.00,OVC,FEW,0.00,WeatherDisplay:10.37,2013-10-22 03:54:00,
2013-10-21 22:59:00,37.3,28.1,30.00,NW,318,0.0,0.0,69,0.00,OVC,FEW,0.00,WeatherDisplay:10.37,2013-10-22 03:59:00,
2013-10-21 23:01:00,37.2,28.3,30.00,NW,318,0.0,0.0,70,0.00,OVC,FEW,0.00,WeatherDisplay:10.37,2013-10-22 04:01:00,
2013-10-21 23:02:00,37.2,28.3,30.00,NW,318,0.0,0.0,70,0.00,OVC,FEW,0.00,WeatherDisplay:10.37,2013-10-22 04:02:00,
2013-10-21 23:07:00,36.9,28.0,30.00,NW,318,0.0,0.0,70,0.00,OVC,FEW,0.00,WeatherDisplay:10.37,2013-10-22 04:07:00,
2013-10-21 23:12:00,36.7,28.2,30.00,NW,318,0.0,0.0,71,0.00,OVC,FEW,0.00,WeatherDisplay:10.37,2013-10-22 04:12:00,
2013-10-21 23:17:00,36.4,27.9,30.00,NW,318,0.0,0.0,71,0.00,OVC,FEW,0.00,WeatherDisplay:10.37,2013-10-22 04:17:00,
2013-10-21 23:22:00,36.2,28.0,30.00,NW,318,0.0,0.0,72,0.00,OVC,FEW,0.00,WeatherDisplay:10.37,2013-10-22 04:22:00,
2013-10-21 23:27:00,35.9,28.4,30.00,NW,318,0.0,0.0,74,0.00,OVC,FEW,0.00,WeatherDisplay:10.37,2013-10-22 04:27:00,
2013-10-21 23:32:00,35.7,28.2,30.00,NW,318,0.0,0.0,74,0.00,OVC,FEW,0.00,WeatherDisplay:10.37,2013-10-22 04:32:00,
2013-10-21 23:37:00,35.5,28.4,30.00,NW,318,0.0,0.0,75,0.00,OVC,FEW,0.00,WeatherDisplay:10.37,2013-10-22 04:37:00,
2013-10-21 23:42:00,35.3,28.2,30.00,NW,318,0.0,0.0,75,0.00,OVC,FEW,0.00,WeatherDisplay:10.37,2013-10-22 04:42:00,
2013-10-21 23:47:00,35.2,28.1,30.00,NW,318,0.0,0.0,75,0.00,OVC,FEW,0.00,WeatherDisplay:10.37,2013-10-22 04:47:00,
2013-10-21 23:52:00,35.1,28.0,30.00,NW,318,0.0,0.0,75,0.00,OVC,FEW,0.00,WeatherDisplay:10.37,2013-10-22 04:52:00,
2013-10-21 23:57:00,34.9,28.1,30.00,NW,318,0.0,0.0,76,0.00,OVC,FEW,0.00,WeatherDisplay:10.37,2013-10-22 04:57:00,